createdAt,value
2023-02-12T00:00:46.638Z,98879.78
2023-02-12T00:03:32.223Z,98703.94
2023-02-12T00:06:17.881Z,98876.78
2023-02-12T00:09:03.925Z,98905.16
2023-02-12T00:11:49.743Z,98857.94
2023-02-12T00:14:37.552Z,98872.56
2023-02-12T00:17:23.348Z,98870.84
2023-02-12T00:20:09.191Z,98916.59
2023-02-12T00:22:54.601Z,98851.53
2023-02-12T00:25:43.776Z,98890.72
2023-02-12T00:28:29.349Z,98692.84
2023-02-12T00:31:21.726Z,98850.56
2023-02-12T00:34:07.520Z,98889.22
2023-02-12T00:36:52.939Z,98822.28
2023-02-12T00:39:38.545Z,98898.16
2023-02-12T00:42:24.117Z,98892.97
2023-02-12T00:45:09.791Z,98885.56
2023-02-12T00:47:55.175Z,98758.31
2023-02-12T00:50:43.323Z,98905.41
2023-02-12T00:53:29.449Z,98907.09
2023-02-12T00:56:15.420Z,98908.13
2023-02-12T00:59:01.280Z,98705.97
2023-02-12T01:01:46.758Z,98925.25
2023-02-12T01:04:32.606Z,98685.94
2023-02-12T01:07:17.979Z,98953.34
2023-02-12T01:10:03.511Z,98728.81
2023-02-12T01:12:50.148Z,98876.41
2023-02-12T01:15:36.002Z,98927.97
2023-02-12T01:18:23.761Z,98932.97
2023-02-12T01:21:21.188Z,98927.75
2023-02-12T01:24:07.393Z,98914.88
2023-02-12T01:26:52.764Z,98947.88
2023-02-12T01:29:39.779Z,98752.38
2023-02-12T01:32:25.456Z,98944.41
2023-02-12T01:35:11.526Z,98794.56
2023-02-12T01:37:59.648Z,98801.25
2023-02-12T01:40:46.061Z,98957.38
2023-02-12T01:43:33.922Z,98945.72
2023-02-12T01:46:19.480Z,98829.81
2023-02-12T01:49:09.640Z,98971.78
2023-02-12T01:52:07.087Z,98994.41
2023-02-12T01:54:57.118Z,98986.75
2023-02-12T01:57:47.331Z,99026.50
2023-02-12T02:00:33.485Z,98985.25
2023-02-12T02:03:19.311Z,98998.16
2023-02-12T02:06:18.909Z,99038.94
2023-02-12T02:09:04.841Z,98994.47
2023-02-12T02:12:09.847Z,99007.13
2023-02-12T02:14:57.857Z,98995.69
2023-02-12T02:17:57.476Z,98813.69
2023-02-12T02:21:10.951Z,99031.00
2023-02-12T02:24:16.925Z,99036.47
2023-02-12T02:27:14.919Z,99040.19
2023-02-12T02:30:35.180Z,99056.59
2023-02-12T02:33:44.107Z,99056.38
2023-02-12T02:36:40.009Z,99087.44
2023-02-12T02:39:51.325Z,99067.31
2023-02-12T02:42:46.263Z,99069.06
2023-02-12T02:45:39.345Z,99082.50
2023-02-12T02:48:34.824Z,99077.78
2023-02-12T02:51:27.470Z,99083.75
2023-02-12T02:54:36.083Z,98957.22
2023-02-12T02:57:57.246Z,99093.69
2023-02-12T03:01:18.051Z,99102.63
2023-02-12T03:04:07.888Z,99108.09
2023-02-12T03:06:53.307Z,99140.44
2023-02-12T03:09:43.641Z,99123.28
2023-02-12T03:12:45.929Z,99085.97
2023-02-12T03:15:42.759Z,99119.53
2023-02-12T03:18:35.092Z,99129.00
2023-02-12T03:21:28.805Z,99111.34
2023-02-12T03:24:25.411Z,99119.78
2023-02-12T03:27:13.736Z,99208.56
2023-02-12T03:30:00.870Z,99125.69
2023-02-12T03:33:20.211Z,99203.06
2023-02-12T03:36:45.358Z,99013.22
2023-02-12T03:39:54.236Z,99194.91
2023-02-12T03:42:57.901Z,99056.81
2023-02-12T03:45:57.604Z,99276.13
2023-02-12T03:49:01.118Z,99235.34
2023-02-12T03:51:46.800Z,99246.03
2023-02-12T03:54:32.333Z,99249.50
2023-02-12T03:57:22.220Z,99052.84
2023-02-12T04:00:13.218Z,99272.31
2023-02-12T04:03:02.325Z,99261.81
2023-02-12T04:05:47.906Z,99273.03
2023-02-12T04:08:33.475Z,99275.25
2023-02-12T04:11:53.029Z,99163.13
2023-02-12T04:14:41.621Z,99289.81
2023-02-12T04:17:29.966Z,99297.00
2023-02-12T04:20:18.752Z,99293.91
2023-02-12T04:23:07.163Z,99314.34
2023-02-12T04:26:11.026Z,99313.81
2023-02-12T04:29:17.410Z,99268.34
2023-02-12T04:32:15.186Z,99149.03
2023-02-12T04:35:24.018Z,99330.41
2023-02-12T04:38:28.021Z,99130.53
2023-02-12T04:41:14.487Z,99327.13
2023-02-12T04:44:17.569Z,99329.56
2023-02-12T04:47:03.652Z,99234.47
2023-02-12T04:49:49.620Z,99349.03
2023-02-12T04:52:35.044Z,99312.34
2023-02-12T04:55:20.433Z,99239.59
2023-02-12T04:58:06.737Z,99373.91
2023-02-12T05:00:55.044Z,99234.88
2023-02-12T05:03:40.925Z,99368.75
2023-02-12T05:06:26.467Z,99204.91
2023-02-12T05:09:18.153Z,99391.66
2023-02-12T05:12:03.985Z,99203.25
2023-02-12T05:14:49.411Z,99399.03
2023-02-12T05:17:34.996Z,99415.75
2023-02-12T05:20:20.680Z,99202.16
2023-02-12T05:23:06.464Z,99430.72
2023-02-12T05:25:51.921Z,99218.78
2023-02-12T05:28:37.548Z,99435.31
2023-02-12T05:31:23.575Z,99412.31
2023-02-12T05:34:11.359Z,99250.44
2023-02-12T05:36:57.821Z,99453.91
2023-02-12T05:39:43.392Z,99466.06
2023-02-12T05:42:29.965Z,99417.56
2023-02-12T05:45:15.514Z,99469.88
2023-02-12T05:48:04.316Z,99469.75
2023-02-12T05:50:52.240Z,99398.69
2023-02-12T05:53:40.486Z,99504.13
2023-02-12T05:56:28.822Z,99501.88
2023-02-12T05:59:21.119Z,99520.78
2023-02-12T06:02:06.633Z,99531.28
2023-02-12T06:04:52.816Z,99323.91
2023-02-12T06:07:38.352Z,99549.25
2023-02-12T06:10:23.858Z,99534.44
2023-02-12T06:13:11.020Z,99538.94
2023-02-12T06:15:57.198Z,99560.78
2023-02-12T06:18:42.676Z,99559.47
2023-02-12T06:21:28.962Z,99575.63
2023-02-12T06:24:15.573Z,99574.81
2023-02-12T06:27:01.869Z,99592.94
2023-02-12T06:29:47.106Z,99593.59
2023-02-12T06:32:32.481Z,99405.16
2023-02-12T06:35:17.870Z,99610.72
2023-02-12T06:38:03.933Z,99389.84
2023-02-12T06:40:49.410Z,99626.88
2023-02-12T06:43:34.961Z,99619.16
2023-02-12T06:46:21.112Z,99660.75
2023-02-12T06:49:06.820Z,99633.16
2023-02-12T06:51:52.253Z,99652.31
2023-02-12T06:54:38.297Z,99621.28
2023-02-12T06:57:26.792Z,99651.38
2023-02-12T07:00:13.268Z,99705.75
2023-02-12T07:02:59.411Z,99670.78
2023-02-12T07:05:46.215Z,99477.91
2023-02-12T07:08:31.696Z,99506.75
2023-02-12T07:11:17.407Z,99693.78
2023-02-12T07:14:03.334Z,99640.22
2023-02-12T07:16:51.791Z,99669.81
2023-02-12T07:19:37.658Z,99688.72
2023-02-12T07:22:23.376Z,99687.31
2023-02-12T07:25:09.010Z,99678.19
2023-02-12T07:28:00.577Z,99667.56
2023-02-12T07:30:46.403Z,99660.03
2023-02-12T07:33:35.863Z,99680.69
2023-02-12T07:36:22.704Z,99660.38
2023-02-12T07:39:08.169Z,99481.75
2023-02-12T07:41:54.680Z,99668.94
2023-02-12T07:44:40.864Z,99697.25
2023-02-12T07:47:27.795Z,99495.97
2023-02-12T07:50:18.508Z,99706.66
2023-02-12T07:53:04.031Z,99656.94
2023-02-12T07:55:49.565Z,99695.13
2023-02-12T07:58:35.138Z,99676.97
2023-02-12T08:01:23.002Z,99722.03
2023-02-12T08:04:13.173Z,99720.59
2023-02-12T08:06:59.233Z,99554.38
2023-02-12T08:09:44.819Z,99721.56
2023-02-12T08:12:37.712Z,99715.25
2023-02-12T08:15:32.598Z,99560.59
2023-02-12T08:18:20.174Z,99724.19
2023-02-12T08:21:19.482Z,99500.47
2023-02-12T08:24:05.606Z,99757.22
2023-02-12T08:26:52.796Z,99714.84
2023-02-12T08:29:42.910Z,99747.31
2023-02-12T08:32:29.590Z,99749.56
2023-02-12T08:35:15.509Z,99786.28
2023-02-12T08:38:01.158Z,99551.00
2023-02-12T08:40:46.942Z,99745.44
2023-02-12T08:43:32.704Z,99588.22
2023-02-12T08:46:24.874Z,99593.47
2023-02-12T08:49:19.605Z,99644.06
2023-02-12T08:52:05.345Z,99610.59
2023-02-12T08:54:50.728Z,99660.06
2023-02-12T08:57:37.025Z,99568.66
2023-02-12T09:00:23.271Z,99763.75
2023-02-12T09:03:12.557Z,99798.59
2023-02-12T09:06:03.218Z,99632.22
2023-02-12T09:08:59.821Z,99806.78
2023-02-12T09:11:45.901Z,99786.25
2023-02-12T09:14:31.333Z,99844.34
2023-02-12T09:17:19.640Z,99813.53
2023-02-12T09:20:05.854Z,99781.00
2023-02-12T09:22:54.631Z,99843.69
2023-02-12T09:25:45.868Z,99845.03
2023-02-12T09:28:39.964Z,99744.88
2023-02-12T09:31:28.087Z,99877.72
2023-02-12T09:34:13.552Z,99865.66
2023-02-12T09:36:59.160Z,99862.53
2023-02-12T09:39:45.050Z,99863.09
2023-02-12T09:42:40.952Z,99892.88
2023-02-12T09:45:30.405Z,99840.72
2023-02-12T09:48:35.360Z,99775.75
2023-02-12T09:51:22.488Z,99845.50
2023-02-12T09:54:14.720Z,99849.19
2023-02-12T09:57:05.636Z,99888.06
2023-02-12T10:00:19.013Z,99885.50
2023-02-12T10:03:13.707Z,99903.41
2023-02-12T10:06:05.702Z,99918.13
2023-02-12T10:09:27.058Z,99893.81
2023-02-12T10:12:33.015Z,99900.97
2023-02-12T10:16:05.659Z,99891.72
2023-02-12T10:19:06.251Z,99866.88
2023-02-12T10:22:07.115Z,99773.94
2023-02-12T10:25:11.971Z,99890.59
2023-02-12T10:28:17.703Z,99757.50
2023-02-12T10:31:08.129Z,99706.50
2023-02-12T10:34:03.659Z,99893.38
2023-02-12T10:37:43.855Z,99895.78
2023-02-12T10:40:38.617Z,99893.13
2023-02-12T10:43:26.121Z,99713.06
2023-02-12T10:46:16.752Z,99913.25
2023-02-12T10:49:06.174Z,99831.56
2023-02-12T10:52:27.188Z,99867.91
2023-02-12T10:55:33.718Z,99733.75
2023-02-12T10:58:23.000Z,99918.19
2023-02-12T11:01:19.426Z,99889.13
2023-02-12T11:04:23.986Z,99896.66
2023-02-12T11:07:15.413Z,99901.91
2023-02-12T11:10:01.054Z,99898.72
2023-02-12T11:12:49.844Z,99907.25
2023-02-12T11:15:47.533Z,99871.84
2023-02-12T11:18:34.266Z,99727.19
2023-02-12T11:21:24.503Z,99869.59
2023-02-12T11:24:32.461Z,99890.53
2023-02-12T11:27:29.073Z,99850.06
2023-02-12T11:30:21.656Z,99860.94
2023-02-12T11:33:34.843Z,99875.75
2023-02-12T11:36:26.712Z,99861.00
2023-02-12T11:39:30.921Z,99811.66
2023-02-12T11:42:24.402Z,99906.97
2023-02-12T11:45:17.980Z,99905.25
2023-02-12T11:48:19.237Z,99747.13
2023-02-12T11:51:09.189Z,99757.75
2023-02-12T11:53:57.665Z,99768.75
2023-02-12T11:56:46.666Z,99700.47
2023-02-12T11:59:45.606Z,99833.88
2023-02-12T12:02:39.455Z,99773.31
2023-02-12T12:05:35.132Z,99929.75
2023-02-12T12:08:20.897Z,99909.53
2023-02-12T12:11:28.351Z,99905.19
2023-02-12T12:15:17.402Z,99696.41
2023-02-12T12:18:43.392Z,99716.28
2023-02-12T12:21:45.946Z,99938.19
2023-02-12T12:24:39.466Z,99898.97
2023-02-12T12:28:06.042Z,99914.78
2023-02-12T12:31:02.198Z,99897.25
2023-02-12T12:33:51.626Z,99904.94
2023-02-12T12:37:05.519Z,99907.81
2023-02-12T12:40:08.711Z,99912.66
2023-02-12T12:43:12.840Z,99905.53
2023-02-12T12:46:23.976Z,99908.81
2023-02-12T12:49:21.634Z,99918.84
2023-02-12T12:52:39.832Z,99918.16
2023-02-12T12:55:31.582Z,99942.16
2023-02-12T12:58:32.458Z,99928.69
2023-02-12T13:01:24.170Z,99950.13
2023-02-12T13:04:45.135Z,99919.66
2023-02-12T13:07:55.127Z,99908.19
2023-02-12T13:10:50.785Z,99904.22
2023-02-12T13:13:42.259Z,99912.03
2023-02-12T13:16:40.859Z,99910.22
2023-02-12T13:19:42.271Z,99921.47
2023-02-12T13:22:41.388Z,99871.66
2023-02-12T13:25:32.720Z,99932.94
2023-02-12T13:28:42.351Z,99904.22
2023-02-12T13:31:34.056Z,99903.53
2023-02-12T13:34:22.672Z,99888.38
2023-02-12T13:37:15.275Z,99877.44
2023-02-12T13:40:06.056Z,99862.53
2023-02-12T13:43:07.752Z,99901.53
2023-02-12T13:46:06.932Z,99908.22
2023-02-12T13:49:17.040Z,99905.75
2023-02-12T13:52:10.839Z,99855.00
2023-02-12T13:55:16.262Z,99880.50
2023-02-12T13:58:31.817Z,99919.44
2023-02-12T14:01:49.602Z,99931.41
2023-02-12T14:04:55.673Z,99928.47
2023-02-12T14:07:46.531Z,99960.31
2023-02-12T14:10:41.510Z,99894.81
2023-02-12T14:13:34.243Z,99774.47
2023-02-12T14:16:31.842Z,99937.78
2023-02-12T14:19:39.804Z,99937.03
2023-02-12T14:22:28.543Z,99976.31
2023-02-12T14:25:21.094Z,99937.94
2023-02-12T14:28:20.595Z,99879.22
2023-02-12T14:31:29.996Z,99913.56
2023-02-12T14:34:18.523Z,99960.22
2023-02-12T14:37:18.513Z,99794.81
2023-02-12T14:40:43.570Z,99949.41
2023-02-12T14:44:09.886Z,99790.09
2023-02-12T14:46:58.038Z,99859.50
2023-02-12T14:49:51.359Z,99959.81
2023-02-12T14:52:43.238Z,99863.88
2023-02-12T14:55:34.314Z,99977.97
2023-02-12T14:58:24.615Z,99976.72
2023-02-12T15:01:11.316Z,99793.34
2023-02-12T15:03:59.333Z,99981.03
2023-02-12T15:06:55.095Z,99960.09
2023-02-12T15:10:12.597Z,99948.06
2023-02-12T15:13:43.893Z,99995.41
2023-02-12T15:16:52.627Z,99999.66
2023-02-12T15:19:50.987Z,99994.19
2023-02-12T15:22:45.330Z,99994.66
2023-02-12T15:26:01.247Z,99996.63
2023-02-12T15:28:50.346Z,99959.00
2023-02-12T15:31:36.788Z,99986.78
2023-02-12T15:34:25.539Z,99792.84
2023-02-12T15:37:24.224Z,99998.00
2023-02-12T15:40:15.935Z,99962.53
2023-02-12T15:43:04.046Z,99988.97
2023-02-12T15:45:53.171Z,100001.38
2023-02-12T15:48:39.609Z,100000.06
2023-02-12T15:51:44.135Z,100000.53
2023-02-12T15:54:30.429Z,100036.97
2023-02-12T15:57:22.883Z,100009.84
2023-02-12T16:00:27.235Z,99988.38
2023-02-12T16:03:28.267Z,99998.72
2023-02-12T16:06:18.318Z,99835.63
2023-02-12T16:09:28.851Z,100007.06
2023-02-12T16:12:19.494Z,100039.03
2023-02-12T16:15:24.895Z,100018.09
2023-02-12T16:18:28.111Z,100027.06
2023-02-12T16:21:19.271Z,100048.09
2023-02-12T16:24:30.824Z,100056.09
2023-02-12T16:27:22.734Z,100042.22
2023-02-12T16:30:28.287Z,100052.28
2023-02-12T16:33:45.577Z,100079.69
2023-02-12T16:36:35.956Z,100052.44
2023-02-12T16:39:54.247Z,100066.75
2023-02-12T16:42:46.580Z,100089.22
2023-02-12T16:45:32.354Z,100088.38
2023-02-12T16:48:27.265Z,100070.47
2023-02-12T16:51:32.435Z,100072.28
2023-02-12T16:54:44.519Z,100068.91
2023-02-12T16:57:30.417Z,100078.41
2023-02-12T17:00:21.852Z,100055.59
2023-02-12T17:03:13.939Z,99889.75
2023-02-12T17:05:59.572Z,100053.19
2023-02-12T17:08:48.850Z,100073.22
2023-02-12T17:11:34.817Z,99938.13
2023-02-12T17:14:23.710Z,100071.78
2023-02-12T17:17:10.735Z,100080.09
2023-02-12T17:20:02.070Z,100103.34
2023-02-12T17:22:55.009Z,100076.97
2023-02-12T17:25:40.752Z,100086.94
2023-02-12T17:28:26.856Z,100114.03
2023-02-12T17:31:12.490Z,100100.63
2023-02-12T17:33:58.842Z,100080.13
2023-02-12T17:36:44.343Z,100097.72
2023-02-12T17:39:30.137Z,100109.00
2023-02-12T17:42:15.872Z,100096.41
2023-02-12T17:45:05.022Z,100106.06
2023-02-12T17:47:55.457Z,100108.06
2023-02-12T17:50:44.075Z,99933.06
2023-02-12T17:53:31.926Z,100113.69
2023-02-12T17:56:23.091Z,100113.69
2023-02-12T17:59:12.887Z,100026.81
2023-02-12T18:02:13.467Z,100134.00
2023-02-12T18:04:59.935Z,99950.19
2023-02-12T18:07:47.061Z,100092.78
2023-02-12T18:10:38.191Z,100082.22
2023-02-12T18:13:25.991Z,100080.66
2023-02-12T18:16:17.792Z,100097.00
2023-02-12T18:19:07.244Z,100103.53
2023-02-12T18:21:53.544Z,100111.25
2023-02-12T18:24:42.133Z,99975.88
2023-02-12T18:27:28.736Z,99925.13
2023-02-12T18:30:15.664Z,100087.44
2023-02-12T18:33:01.544Z,100075.44
2023-02-12T18:35:59.045Z,100100.84
2023-02-12T18:38:48.136Z,100087.25
2023-02-12T18:41:36.665Z,100073.56
2023-02-12T18:44:23.530Z,100086.78
2023-02-12T18:47:10.061Z,100102.75
2023-02-12T18:49:58.691Z,100089.84
2023-02-12T18:52:46.255Z,100086.25
2023-02-12T18:55:32.390Z,100075.66
2023-02-12T18:58:23.323Z,100093.22
2023-02-12T19:01:18.371Z,100094.94
2023-02-12T19:04:11.662Z,100085.34
2023-02-12T19:07:04.675Z,100091.44
2023-02-12T19:10:03.589Z,100101.44
2023-02-12T19:12:49.462Z,100093.13
2023-02-12T19:15:39.659Z,100064.25
2023-02-12T19:18:26.253Z,99875.09
2023-02-12T19:21:16.424Z,100034.25
2023-02-12T19:24:06.195Z,100119.31
2023-02-12T19:26:53.913Z,100093.25
2023-02-12T19:29:41.200Z,99825.09
2023-02-12T19:32:36.866Z,100079.03
2023-02-12T19:35:24.755Z,99912.84
2023-02-12T19:38:14.609Z,100075.06
2023-02-12T19:41:16.517Z,100062.41
2023-02-12T19:44:02.090Z,100084.22
2023-02-12T19:47:00.306Z,100061.38
2023-02-12T19:49:46.804Z,99988.34
2023-02-12T19:52:32.715Z,100062.31
2023-02-12T19:55:19.768Z,100067.78
2023-02-12T19:58:07.194Z,100013.97
2023-02-12T20:00:53.524Z,100035.13
2023-02-12T20:03:41.250Z,100077.34
2023-02-12T20:06:30.118Z,100016.56
2023-02-12T20:09:16.120Z,99879.91
2023-02-12T20:12:02.619Z,100058.53
2023-02-12T20:14:48.281Z,100032.84
2023-02-12T20:17:34.112Z,99891.00
2023-02-12T20:20:19.935Z,100053.88
2023-02-12T20:23:05.961Z,100062.84
2023-02-12T20:25:52.083Z,100044.41
2023-02-12T20:28:39.352Z,100066.81
2023-02-12T20:31:31.101Z,100001.19
2023-02-12T20:34:23.678Z,100060.31
2023-02-12T20:37:09.742Z,100067.44
2023-02-12T20:39:55.417Z,99974.28
2023-02-12T20:42:42.093Z,99899.16
2023-02-12T20:45:28.052Z,99880.84
2023-02-12T20:48:14.794Z,99852.31
2023-02-12T20:51:12.855Z,99842.50
2023-02-12T20:54:01.360Z,99979.13
2023-02-12T20:56:49.654Z,100020.38
2023-02-12T20:59:35.282Z,100051.13
2023-02-12T21:02:20.906Z,100039.63
2023-02-12T21:05:07.324Z,100019.97
2023-02-12T21:07:54.148Z,99859.97
2023-02-12T21:10:40.035Z,100071.09
2023-02-12T21:13:27.983Z,100077.13
2023-02-12T21:16:18.028Z,100026.00
2023-02-12T21:19:04.197Z,99948.28
2023-02-12T21:21:50.277Z,100023.28
2023-02-12T21:24:40.352Z,100064.28
2023-02-12T21:28:01.457Z,100068.34
2023-02-12T21:34:27.715Z,100065.94
2023-02-12T21:37:14.656Z,100061.72
2023-02-12T21:40:05.142Z,100058.69
2023-02-12T21:43:04.178Z,100064.09
2023-02-12T21:45:52.473Z,100063.19
2023-02-12T21:48:41.948Z,100061.69
2023-02-12T21:51:33.296Z,100046.69
2023-02-12T21:54:21.630Z,99889.94
2023-02-12T21:57:10.229Z,100059.25
2023-02-12T21:59:59.411Z,100042.75
2023-02-12T22:02:47.916Z,100084.50
2023-02-12T22:05:34.034Z,100054.38
2023-02-12T22:08:24.100Z,100054.69
2023-02-12T22:11:11.868Z,100064.66
2023-02-12T22:13:58.014Z,100059.22
2023-02-12T22:16:45.620Z,100066.19
2023-02-12T22:19:35.980Z,100052.25
2023-02-12T22:22:22.093Z,100043.19
2023-02-12T22:25:08.145Z,100015.06
2023-02-12T22:27:58.818Z,99818.63
2023-02-12T22:30:46.249Z,100021.72
2023-02-12T22:33:38.544Z,100026.84
2023-02-12T22:36:31.900Z,99886.91
2023-02-12T22:39:26.593Z,100019.00
2023-02-12T22:42:17.320Z,100010.22
2023-02-12T22:45:12.872Z,100017.38
2023-02-12T22:48:08.196Z,100020.09
2023-02-12T22:51:07.760Z,99969.75
2023-02-12T22:53:54.221Z,100014.34
2023-02-12T22:56:39.819Z,99850.66
2023-02-12T22:59:25.345Z,99962.94
2023-02-12T23:02:12.239Z,100006.03
2023-02-12T23:04:57.895Z,100026.00
2023-02-12T23:07:43.520Z,100011.19
2023-02-12T23:10:29.174Z,99988.34
2023-02-12T23:13:27.928Z,99983.97
2023-02-12T23:16:15.049Z,100009.06
2023-02-12T23:19:02.198Z,99858.06
2023-02-12T23:21:47.935Z,99971.72
2023-02-12T23:24:33.500Z,99981.53
2023-02-12T23:27:19.097Z,99802.31
2023-02-12T23:30:05.050Z,99995.16
2023-02-12T23:32:50.481Z,99990.44
2023-02-12T23:35:35.924Z,99993.63
2023-02-12T23:38:21.445Z,100005.72
2023-02-12T23:41:10.168Z,99975.94
2023-02-12T23:43:56.024Z,99940.41
2023-02-12T23:46:41.654Z,99962.19
2023-02-12T23:49:29.237Z,99998.78
2023-02-12T23:52:14.472Z,99988.66
2023-02-12T23:54:59.989Z,99764.84
2023-02-12T23:57:45.888Z,99787.03
